Time;durP1;ratioP1;P1;durP2;ratioP2;P2;SDS_P1;SDS_P2;PMS_P1;PMS_P2;Temp;Humidity;BMP_temperature;BMP_pressure;BME280_temperature;BME280_humidity;BME280_pressure;Samples;Min_cycle;Max_cycle;Signal;HPM_P1;HPM_P2
2023/05/24 00:01:36;;;;;;;13.45;3.22;;;;;;;10.06;67.45;102234.09;3615956;39;20128;-68
2023/05/24 00:04:02;;;;;;;13.98;3.20;;;;;;;10.07;67.96;102225.09;3613383;39;20061;-68
2023/05/24 00:06:28;;;;;;;10.32;3.15;;;;;;;9.92;67.80;102204.16;3615491;39;20378;-68
2023/05/24 00:08:54;;;;;;;13.90;3.15;;;;;;;10.04;68.57;102235.06;3614140;39;20170;-68
2023/05/24 00:11:21;;;;;;;11.48;3.47;;;;;;;9.96;68.47;102227.31;3614616;39;20046;-68
2023/05/24 00:13:48;;;;;;;12.75;3.28;;;;;;;9.91;69.12;102218.53;3614050;39;20061;-68
2023/05/24 00:16:14;;;;;;;12.02;3.72;;;;;;;9.88;69.39;102219.50;3614022;39;20606;-68
2023/05/24 00:18:40;;;;;;;11.65;3.08;;;;;;;9.87;69.44;102217.78;3615870;39;20052;-68
2023/05/24 00:21:10;;;;;;;13.57;3.55;;;;;;;9.89;69.46;102215.00;3613346;39;20359;-68
2023/05/24 00:23:37;;;;;;;11.10;3.30;;;;;;;9.82;69.04;102211.69;3615492;39;20059;-68
2023/05/24 00:26:06;;;;;;;15.70;3.70;;;;;;;9.77;69.61;102213.66;3616459;39;20047;-68
2023/05/24 00:28:31;;;;;;;12.55;3.38;;;;;;;9.74;69.34;102205.72;3613820;39;20434;-68
2023/05/24 00:30:57;;;;;;;9.98;3.20;;;;;;;9.71;70.12;102213.88;3613721;39;20046;-69
2023/05/24 00:33:23;;;;;;;13.48;3.40;;;;;;;9.68;69.83;102211.31;3615224;39;20069;-68
2023/05/24 00:35:55;;;;;;;13.60;2.97;;;;;;;9.63;70.38;102206.09;3613747;39;20066;-69
2023/05/24 00:38:24;;;;;;;13.23;3.75;;;;;;;9.57;69.97;102208.13;3613700;39;20079;-68
2023/05/24 00:40:50;;;;;;;16.17;3.38;;;;;;;9.50;70.27;102197.59;3617298;39;20417;-68
2023/05/24 00:43:16;;;;;;;10.02;3.00;;;;;;;9.49;70.79;102201.22;3619022;39;20057;-68
2023/05/24 00:45:42;;;;;;;12.10;3.78;;;;;;;9.44;70.68;102196.94;3616651;39;20066;-68
2023/05/24 00:48:09;;;;;;;11.45;3.90;;;;;;;9.39;70.87;102198.94;3618554;39;20062;-68
2023/05/24 00:50:38;;;;;;;10.98;3.55;;;;;;;9.31;71.55;102185.75;3610250;39;20401;-68
2023/05/24 00:53:05;;;;;;;14.60;3.97;;;;;;;8.88;71.47;102121.97;3615791;39;20061;-68
2023/05/24 00:55:35;;;;;;;12.95;3.65;;;;;;;9.31;71.40;102196.50;3614368;39;20061;-68
2023/05/24 00:58:02;;;;;;;12.43;3.85;;;;;;;9.28;71.26;102199.28;3617093;39;20047;-68
2023/05/24 01:00:29;;;;;;;9.80;3.30;;;;;;;9.21;71.39;102198.63;3620996;39;20077;-68
2023/05/24 01:02:55;;;;;;;9.63;3.47;;;;;;;8.99;72.30;102179.69;3615407;39;20138;-68
2023/05/24 01:05:22;;;;;;;14.05;3.35;;;;;;;9.07;72.49;102199.09;3617176;39;20286;-68
2023/05/24 01:08:17;;;;;;;13.02;3.63;;;;;;;9.01;72.98;102190.38;3620142;39;20139;-68
2023/05/24 01:11:11;;;;;;;10.85;4.20;;;;;;;8.97;73.24;102192.25;3615100;39;20069;-68
2023/05/24 01:13:58;;;;;;;13.43;3.80;;;;;;;8.96;73.53;102190.50;3618592;39;20393;-69
2023/05/24 01:16:39;;;;;;;10.77;3.50;;;;;;;8.75;73.42;102151.91;3616535;39;20103;-68
2023/05/24 01:19:43;;;;;;;10.43;4.18;;;;;;;8.86;73.74;102178.34;3612960;39;20055;-68
2023/05/24 01:22:43;;;;;;;14.65;3.95;;;;;;;8.80;74.62;102181.22;3615502;39;20059;-69
2023/05/24 01:26:06;;;;;;;10.63;3.83;;;;;;;8.78;74.02;102173.22;3614898;39;20070;-69
2023/05/24 01:28:34;;;;;;;10.57;4.15;;;;;;;8.78;74.56;102178.56;3602046;39;20059;-69
2023/05/24 01:31:02;;;;;;;11.63;3.70;;;;;;;8.78;74.62;102180.38;3615976;39;20404;-69
2023/05/24 01:33:29;;;;;;;11.27;4.07;;;;;;;8.77;74.82;102162.56;3622699;39;20066;-68
2023/05/24 01:35:54;;;;;;;12.77;4.70;;;;;;;8.78;74.92;102175.03;3621968;39;20054;-68
2023/05/24 01:38:20;;;;;;;11.52;4.20;;;;;;;8.75;74.84;102176.03;3620658;39;20377;-69
2023/05/24 01:40:56;;;;;;;13.18;4.10;;;;;;;8.73;74.86;102174.31;3615633;39;20067;-69
2023/05/24 01:43:47;;;;;;;15.18;3.97;;;;;;;8.71;74.98;102176.16;3618369;39;20127;-69
2023/05/24 01:46:36;;;;;;;11.55;4.25;;;;;;;8.70;74.79;102172.59;3622592;39;20050;-69
2023/05/24 01:49:27;;;;;;;12.75;4.13;;;;;;;8.69;74.69;102172.63;3619810;39;20078;-68
2023/05/24 01:52:04;;;;;;;12.52;4.18;;;;;;;8.55;75.43;102149.84;3619045;39;20132;-68
2023/05/24 01:54:38;;;;;;;15.65;4.68;;;;;;;8.58;75.68;102171.19;3617353;39;20300;-68
2023/05/24 01:57:09;;;;;;;13.45;4.10;;;;;;;8.56;75.43;102159.66;3615537;39;20086;-68
2023/05/24 01:59:40;;;;;;;11.60;4.45;;;;;;;8.52;75.73;102176.75;3616884;39;20062;-68
2023/05/24 02:02:06;;;;;;;10.73;3.90;;;;;;;8.48;76.30;102169.72;3617316;39;20051;-69
2023/05/24 02:04:32;;;;;;;9.55;4.72;;;;;;;8.47;76.32;102170.66;3617734;39;20047;-68
2023/05/24 02:06:57;;;;;;;12.88;4.70;;;;;;;8.47;76.37;102169.75;3618636;39;20069;-68
2023/05/24 02:09:23;;;;;;;14.30;4.90;;;;;;;8.13;76.55;102110.06;3616535;39;20112;-68
2023/05/24 02:11:48;;;;;;;13.68;4.38;;;;;;;8.23;76.49;102134.75;3617904;39;20401;-68
2023/05/24 02:14:16;;;;;;;12.70;4.90;;;;;;;8.44;77.09;102173.44;3620801;39;20051;-68
2023/05/24 02:16:45;;;;;;;14.30;4.57;;;;;;;8.42;77.15;102177.09;3620469;39;20042;-68
2023/05/24 02:19:12;;;;;;;13.50;4.75;;;;;;;7.99;77.35;102098.00;3619941;39;20256;-68
2023/05/24 02:21:38;;;;;;;13.30;4.35;;;;;;;7.90;77.42;102091.16;3618111;39;20137;-68
2023/05/24 02:24:05;;;;;;;15.40;4.63;;;;;;;8.24;76.59;102157.94;3619033;39;20298;-69
2023/05/24 02:26:31;;;;;;;12.63;4.55;;;;;;;8.40;76.68;102178.94;3620558;39;20047;-68
2023/05/24 02:28:56;;;;;;;19.30;4.82;;;;;;;8.40;77.21;102179.81;3620549;39;20422;-68
2023/05/24 02:31:22;;;;;;;12.02;4.30;;;;;;;8.35;76.18;102171.88;3622257;39;20050;-68
2023/05/24 02:33:48;;;;;;;13.68;4.60;;;;;;;8.38;76.33;102179.00;3617620;39;20062;-69
2023/05/24 02:36:13;;;;;;;14.35;4.60;;;;;;;8.36;76.39;102184.34;3619869;39;20046;-68
2023/05/24 02:38:39;;;;;;;11.07;4.60;;;;;;;8.35;76.12;102182.59;3617735;39;20385;-68
2023/05/24 02:41:04;;;;;;;14.27;4.40;;;;;;;8.32;76.02;102185.38;3623649;39;20055;-68
2023/05/24 02:43:30;;;;;;;14.02;4.47;;;;;;;8.29;75.96;102177.44;3616983;39;20051;-68
2023/05/24 02:45:56;;;;;;;13.32;4.70;;;;;;;8.25;76.74;102177.59;3617001;39;20051;-69
2023/05/24 02:48:21;;;;;;;9.43;3.88;;;;;;;8.21;76.63;102186.63;3620066;39;20047;-69
2023/05/24 02:50:47;;;;;;;11.00;4.30;;;;;;;8.17;77.23;102188.50;3613848;39;20066;-68
2023/05/24 02:53:12;;;;;;;11.35;4.50;;;;;;;8.17;76.74;102183.16;3616099;39;20061;-69
2023/05/24 02:55:38;;;;;;;11.25;4.45;;;;;;;7.87;77.20;102136.75;3614545;39;20051;-68
2023/05/24 02:58:04;;;;;;;9.88;3.78;;;;;;;8.12;76.17;102180.63;3609050;39;20050;-69
2023/05/24 03:00:29;;;;;;;9.10;4.00;;;;;;;8.08;76.41;102178.94;3618337;39;20050;-69
2023/05/24 03:02:56;;;;;;;12.18;4.97;;;;;;;8.07;77.05;102187.91;3611764;39;20065;-69
2023/05/24 03:05:22;;;;;;;12.60;4.50;;;;;;;8.09;76.86;102185.19;3610023;39;20298;-69
2023/05/24 03:07:47;;;;;;;10.45;4.45;;;;;;;8.05;76.93;102184.38;3618726;39;20065;-69
2023/05/24 03:10:13;;;;;;;13.35;4.43;;;;;;;8.04;77.01;102188.00;3619499;39;20096;-69
2023/05/24 03:12:39;;;;;;;11.07;4.40;;;;;;;7.99;77.45;102181.91;3614908;39;20204;-69
2023/05/24 03:15:05;;;;;;;12.80;4.68;;;;;;;7.97;77.17;102181.06;3620989;39;20415;-69
2023/05/24 03:17:31;;;;;;;13.43;4.82;;;;;;;7.90;77.30;102174.16;3613730;39;20107;-69
2023/05/24 03:19:56;;;;;;;14.18;4.25;;;;;;;7.89;77.02;102183.97;3616765;39;20058;-69
2023/05/24 03:22:22;;;;;;;10.50;4.07;;;;;;;7.89;77.46;102183.09;3622097;39;20062;-69
2023/05/24 03:24:47;;;;;;;10.45;4.03;;;;;;;7.90;77.50;102176.84;3620064;39;20073;-69
2023/05/24 03:27:13;;;;;;;11.63;4.57;;;;;;;7.88;77.14;102173.31;3620211;39;20042;-69
2023/05/24 03:29:39;;;;;;;10.32;4.13;;;;;;;7.90;77.25;102183.06;3614395;39;20058;-69
2023/05/24 03:32:04;;;;;;;12.02;4.18;;;;;;;7.88;76.92;102178.66;3619380;39;20058;-69
2023/05/24 03:34:30;;;;;;;10.52;4.25;;;;;;;7.90;76.92;102183.06;3618639;39;20073;-69
2023/05/24 03:36:56;;;;;;;13.45;4.55;;;;;;;7.92;77.11;102177.66;3616168;39;20063;-69
2023/05/24 03:39:22;;;;;;;11.15;4.00;;;;;;;7.92;77.08;102174.97;3618638;39;20057;-69
2023/05/24 03:41:47;;;;;;;11.60;4.45;;;;;;;7.80;77.38;102151.22;3613221;39;20139;-69
2023/05/24 03:44:13;;;;;;;16.90;4.70;;;;;;;7.96;77.43;102173.97;3615357;39;20059;-69
2023/05/24 03:46:38;;;;;;;17.05;5.50;;;;;;;7.96;77.33;102178.44;3618742;39;20054;-69
2023/05/24 03:49:06;;;;;;;13.27;4.82;;;;;;;7.98;77.81;102176.59;3617796;39;20411;-68
2023/05/24 03:51:31;;;;;;;12.90;5.10;;;;;;;7.98;78.23;102166.75;3615576;39;20082;-68
2023/05/24 03:53:58;;;;;;;11.80;4.90;;;;;;;8.01;77.22;102169.34;3615853;39;20058;-68
2023/05/24 03:56:28;;;;;;;12.52;5.32;;;;;;;7.91;77.20;102158.03;3620462;39;20055;-68
2023/05/24 03:58:53;;;;;;;12.27;4.88;;;;;;;8.02;77.35;102167.53;3619634;39;20054;-67
2023/05/24 04:01:19;;;;;;;17.70;4.90;;;;;;;8.02;77.65;102173.75;3616438;39;20054;-67
2023/05/24 04:03:46;;;;;;;16.90;5.30;;;;;;;7.59;77.50;102099.22;3619927;39;20172;-68
2023/05/24 04:06:12;;;;;;;14.10;5.25;;;;;;;8.02;78.08;102173.75;3617688;39;20057;-68
2023/05/24 04:08:38;;;;;;;11.65;4.53;;;;;;;8.05;78.19;102173.69;3619732;39;20051;-68
2023/05/24 04:11:04;;;;;;;13.40;5.13;;;;;;;7.75;77.93;102137.13;3616753;39;20050;-69
2023/05/24 04:13:30;;;;;;;12.77;5.38;;;;;;;8.04;78.21;102171.06;3618295;39;20066;-68
2023/05/24 04:15:55;;;;;;;10.73;4.90;;;;;;;8.02;78.02;102168.41;3614912;39;20046;-69
2023/05/24 04:18:21;;;;;;;23.60;6.40;;;;;;;8.01;78.17;102161.31;3614481;39;20055;-68
2023/05/24 04:20:46;;;;;;;16.55;5.43;;;;;;;8.06;78.85;102171.91;3613594;39;20066;-68
2023/05/24 04:23:12;;;;;;;16.13;5.60;;;;;;;8.07;78.17;102177.19;3620296;39;20111;-68
2023/05/24 04:25:38;;;;;;;13.18;5.05;;;;;;;8.07;78.22;102181.69;3616698;39;20051;-68
2023/05/24 04:28:05;;;;;;;14.32;5.95;;;;;;;8.04;78.71;102181.78;3602682;39;20120;-66
2023/05/24 04:30:30;;;;;;;12.85;5.15;;;;;;;8.01;79.20;102172.03;3612768;39;20297;-66
2023/05/24 04:32:57;;;;;;;14.98;5.63;;;;;;;8.09;78.46;102180.72;3614039;39;20057;-67
2023/05/24 04:35:24;;;;;;;16.08;5.88;;;;;;;7.90;78.48;102134.00;3614858;39;20054;-67
2023/05/24 04:37:51;;;;;;;14.63;6.22;;;;;;;8.16;79.17;102170.69;3614687;39;20304;-67
2023/05/24 04:40:19;;;;;;;17.83;5.90;;;;;;;8.18;78.20;102178.66;3607812;39;20065;-67
2023/05/24 04:42:45;;;;;;;14.60;5.43;;;;;;;8.22;78.18;102178.56;3616990;39;20208;-67
2023/05/24 04:45:11;;;;;;;17.25;5.93;;;;;;;8.23;78.61;102174.06;3614332;39;20334;-68
2023/05/24 04:47:36;;;;;;;13.52;5.47;;;;;;;8.30;78.94;102175.63;3614702;39;20177;-67
2023/05/24 04:50:03;;;;;;;15.35;5.32;;;;;;;8.32;78.92;102187.19;3613724;39;20059;-66
2023/05/24 04:52:29;;;;;;;16.30;5.60;;;;;;;8.37;78.45;102190.56;3613401;39;20067;-67
2023/05/24 04:54:56;;;;;;;11.23;5.38;;;;;;;8.40;78.52;102179.81;3617282;39;20424;-67
2023/05/24 04:57:22;;;;;;;15.13;6.38;;;;;;;8.42;78.77;102180.63;3619246;39;20038;-67
2023/05/24 04:59:48;;;;;;;15.02;5.82;;;;;;;8.50;78.73;102186.66;3616294;39;20058;-67
2023/05/24 05:02:14;;;;;;;16.30;5.40;;;;;;;8.56;78.42;102189.13;3617562;39;20059;-68
2023/05/24 05:04:39;;;;;;;15.65;6.15;;;;;;;8.37;78.49;102145.94;3618512;39;20057;-67
2023/05/24 05:07:07;;;;;;;14.40;5.90;;;;;;;8.63;78.43;102176.41;3617340;39;20059;-67
2023/05/24 05:09:32;;;;;;;15.25;6.18;;;;;;;8.70;78.81;102182.47;3618204;39;20051;-67
2023/05/24 05:11:58;;;;;;;19.55;6.40;;;;;;;8.74;78.54;102176.94;3614500;39;20076;-67
2023/05/24 05:14:24;;;;;;;14.45;5.95;;;;;;;8.81;78.75;102181.16;3616237;39;20368;-68
2023/05/24 05:16:50;;;;;;;19.75;6.30;;;;;;;8.86;78.70;102175.66;3617022;39;20053;-68
2023/05/24 05:19:15;;;;;;;18.30;6.00;;;;;;;8.95;78.42;102185.22;3620875;39;20070;-67
2023/05/24 05:21:41;;;;;;;15.05;6.45;;;;;;;9.00;78.78;102189.47;3619108;39;21511;-68
2023/05/24 05:24:07;;;;;;;16.23;6.50;;;;;;;9.09;78.82;102192.78;3617901;39;20059;-67
2023/05/24 05:26:33;;;;;;;14.13;6.32;;;;;;;9.18;78.05;102190.66;3616110;39;20063;-67
2023/05/24 05:28:58;;;;;;;13.43;5.50;;;;;;;9.29;78.22;102195.66;3617923;39;20046;-67
2023/05/24 05:31:24;;;;;;;18.42;6.50;;;;;;;9.31;78.31;102185.75;3617910;39;20189;-67
2023/05/24 05:33:50;;;;;;;19.85;7.28;;;;;;;9.41;78.40;102194.38;3617872;39;20374;-67
2023/05/24 05:36:17;;;;;;;21.85;6.50;;;;;;;9.49;79.31;102185.13;3617006;39;20297;-68
2023/05/24 05:38:42;;;;;;;20.45;6.35;;;;;;;9.54;78.69;102180.44;3614156;39;20135;-67
2023/05/24 05:41:08;;;;;;;21.30;6.35;;;;;;;9.67;77.74;102193.44;3616076;39;20063;-68
2023/05/24 05:43:34;;;;;;;16.75;6.80;;;;;;;9.38;78.61;102124.69;3619084;39;20054;-68
2023/05/24 05:46:00;;;;;;;17.42;6.93;;;;;;;9.77;78.22;102185.00;3618201;39;20342;-67
2023/05/24 05:48:26;;;;;;;20.20;7.53;;;;;;;9.87;77.62;102190.03;3616769;39;20063;-67
2023/05/24 05:50:52;;;;;;;25.33;7.10;;;;;;;9.96;78.35;102195.06;3619990;39;20058;-67
2023/05/24 05:53:17;;;;;;;21.77;7.20;;;;;;;10.06;77.60;102193.78;3618017;39;20093;-67
2023/05/24 05:55:43;;;;;;;20.65;5.88;;;;;;;10.20;77.81;102198.63;3622417;39;20054;-68
2023/05/24 05:58:09;;;;;;;18.33;6.50;;;;;;;10.14;77.55;102163.94;3619503;39;20061;-68
2023/05/24 06:00:34;;;;;;;20.35;6.93;;;;;;;10.45;77.16;102195.91;3614978;39;20047;-69
2023/05/24 06:03:00;;;;;;;19.92;6.85;;;;;;;10.59;76.72;102203.41;3614644;39;20118;-68
2023/05/24 06:05:26;;;;;;;14.10;5.80;;;;;;;10.73;76.83;102210.94;3616751;39;20057;-68
2023/05/24 06:07:51;;;;;;;16.23;6.30;;;;;;;10.82;75.72;102208.75;3618499;39;20114;-67
2023/05/24 06:10:17;;;;;;;18.05;6.35;;;;;;;10.91;75.35;102197.63;3609479;39;20102;-67
2023/05/24 06:12:42;;;;;;;16.50;6.40;;;;;;;11.00;75.15;102212.47;3616033;39;20054;-68
2023/05/24 06:15:09;;;;;;;18.27;6.75;;;;;;;11.09;74.73;102212.09;3616899;39;21263;-67
2023/05/24 06:17:36;;;;;;;21.92;7.40;;;;;;;11.18;75.79;102205.47;3615636;39;20051;-68
2023/05/24 06:20:07;;;;;;;20.20;6.93;;;;;;;11.43;74.92;102223.28;3616506;39;20122;-68
2023/05/24 06:22:32;;;;;;;20.20;6.95;;;;;;;11.59;74.82;102221.66;3618330;39;20047;-68
2023/05/24 06:24:58;;;;;;;22.80;7.68;;;;;;;11.70;72.92;102219.34;3618174;39;20046;-69
2023/05/24 06:27:23;;;;;;;21.42;7.10;;;;;;;11.84;72.17;102216.97;3618401;39;20059;-68
2023/05/24 06:29:50;;;;;;;18.98;6.10;;;;;;;12.06;71.70;102218.69;3616469;39;20047;-67
2023/05/24 06:32:15;;;;;;;17.58;6.15;;;;;;;12.24;70.69;102215.16;3614008;39;20051;-67
2023/05/24 06:34:42;;;;;;;17.13;6.50;;;;;;;12.32;70.14;102204.00;3614087;39;20411;-68
2023/05/24 06:37:09;;;;;;;19.35;6.95;;;;;;;12.53;68.51;102226.41;3615702;39;20613;-69
2023/05/24 06:39:36;;;;;;;18.92;7.40;;;;;;;12.68;68.90;102225.63;3618280;39;20047;-67
2023/05/24 06:42:02;;;;;;;20.48;7.13;;;;;;;12.75;68.82;102220.84;3622052;39;20054;-67
2023/05/24 06:44:32;;;;;;;15.85;6.18;;;;;;;12.81;68.34;102220.50;3617342;39;20057;-67
2023/05/24 06:46:59;;;;;;;18.58;7.15;;;;;;;12.93;67.44;102216.34;3616385;39;20043;-66
2023/05/24 06:49:25;;;;;;;19.65;7.88;;;;;;;12.86;68.02;102212.22;3617680;39;20054;-67
2023/05/24 06:51:51;;;;;;;19.25;8.30;;;;;;;13.04;68.17;102215.84;3615202;39;20043;-67
2023/05/24 06:54:17;;;;;;;20.33;7.88;;;;;;;13.02;67.22;102197.00;3615925;39;20388;-67
2023/05/24 06:56:43;;;;;;;20.58;7.32;;;;;;;13.32;66.64;102226.13;3619615;39;20050;-67
2023/05/24 06:59:08;;;;;;;18.50;6.80;;;;;;;13.17;65.78;102201.63;3617454;39;20302;-68
2023/05/24 07:01:38;;;;;;;21.15;7.82;;;;;;;13.19;65.36;102182.63;3608301;39;20055;-67
2023/05/24 07:04:04;;;;;;;19.00;8.00;;;;;;;13.60;64.39;102231.84;3614010;39;20058;-66
2023/05/24 07:06:32;;;;;;;21.85;7.70;;;;;;;13.61;64.60;102232.75;3613354;39;20055;-67
2023/05/24 07:08:57;;;;;;;20.17;7.32;;;;;;;13.70;64.04;102238.53;3617019;39;20055;-67
2023/05/24 07:11:24;;;;;;;19.70;7.65;;;;;;;13.86;63.78;102232.31;3618528;39;20388;-67
2023/05/24 07:13:49;;;;;;;19.38;7.68;;;;;;;14.00;63.45;102228.88;3614197;39;20120;-68
2023/05/24 07:16:15;;;;;;;16.70;7.60;;;;;;;14.20;62.16;102225.97;3605373;39;20050;-67
2023/05/24 07:18:40;;;;;;;16.80;8.35;;;;;;;14.29;61.63;102219.19;3617008;39;20051;-68
2023/05/24 07:21:06;;;;;;;20.20;7.82;;;;;;;14.35;60.33;102229.66;3617664;39;20057;-67
2023/05/24 07:23:34;;;;;;;17.35;7.32;;;;;;;14.53;60.72;102223.28;3619313;39;20381;-67
2023/05/24 07:25:59;;;;;;;23.27;7.70;;;;;;;14.73;60.71;102224.84;3610157;39;20077;-68
2023/05/24 07:28:25;;;;;;;17.67;7.15;;;;;;;14.93;59.29;102220.97;3618716;39;20090;-67
2023/05/24 07:30:51;;;;;;;16.10;7.13;;;;;;;14.37;58.75;102119.56;3617892;39;20047;-68
2023/05/24 07:33:16;;;;;;;17.63;6.75;;;;;;;14.97;58.41;102222.56;3620248;39;20051;-67
2023/05/24 07:35:44;;;;;;;19.55;6.68;;;;;;;14.97;58.47;102233.41;3617902;39;20415;-67
2023/05/24 07:38:10;;;;;;;19.33;6.53;;;;;;;15.00;58.44;102233.22;3615261;39;20333;-68
2023/05/24 07:40:37;;;;;;;16.63;6.90;;;;;;;15.06;58.04;102235.56;3616366;39;20333;-66
2023/05/24 07:43:02;;;;;;;19.30;6.90;;;;;;;14.92;58.09;102240.03;3614991;39;20051;-67
2023/05/24 07:45:28;;;;;;;18.92;7.28;;;;;;;14.74;57.47;102241.94;3617332;39;20047;-68
2023/05/24 07:47:53;;;;;;;16.75;6.32;;;;;;;14.54;57.14;102234.97;3619984;39;20437;-67
2023/05/24 07:50:19;;;;;;;19.02;6.63;;;;;;;14.34;57.19;102236.03;3618222;39;20054;-68
2023/05/24 07:52:45;;;;;;;15.45;5.70;;;;;;;14.30;58.57;102242.56;3618488;39;20052;-69
2023/05/24 07:55:10;;;;;;;17.52;5.90;;;;;;;14.43;57.83;102238.25;3613755;39;20058;-68
2023/05/24 07:57:36;;;;;;;15.80;5.63;;;;;;;14.43;56.75;102238.25;3615525;39;20057;-68
2023/05/24 08:00:09;;;;;;;13.30;5.22;;;;;;;14.43;57.01;102240.03;3612280;39;20067;-68
2023/05/24 08:02:34;;;;;;;11.95;5.05;;;;;;;14.57;56.45;102241.06;3618877;39;20119;-68
2023/05/24 08:05:00;;;;;;;14.63;5.05;;;;;;;14.98;55.60;102240.56;3614760;39;20293;-68
2023/05/24 08:07:25;;;;;;;15.43;4.55;;;;;;;15.33;54.12;102229.47;3605854;39;20062;-68
2023/05/24 08:09:51;;;;;;;14.43;4.45;;;;;;;15.54;53.26;102241.75;3617359;39;20050;-67
2023/05/24 08:12:17;;;;;;;13.23;4.38;;;;;;;15.68;51.70;102231.94;3612974;39;20340;-67
2023/05/24 08:14:42;;;;;;;14.07;4.63;;;;;;;16.01;52.50;102229.84;3607996;39;20057;-66
2023/05/24 08:17:08;;;;;;;15.95;4.72;;;;;;;16.38;51.18;102235.69;3615559;39;20063;-67
2023/05/24 08:19:34;;;;;;;9.73;3.95;;;;;;;16.73;51.02;102237.97;3617159;39;20286;-66
2023/05/24 08:22:03;;;;;;;10.55;4.00;;;;;;;17.01;49.13;102237.03;3617446;39;20051;-67
2023/05/24 08:24:30;;;;;;;10.23;3.78;;;;;;;17.05;48.48;102186.09;3618851;39;20488;-68
2023/05/24 08:26:56;;;;;;;11.52;3.97;;;;;;;17.68;47.38;102231.59;3616427;39;20051;-67
2023/05/24 08:29:22;;;;;;;10.77;3.75;;;;;;;17.93;47.66;102238.06;3616566;39;20170;-68
2023/05/24 08:31:48;;;;;;;13.85;4.25;;;;;;;17.93;47.01;102233.50;3615294;39;20374;-67
2023/05/24 08:34:14;;;;;;;12.60;4.03;;;;;;;17.96;44.78;102235.13;3614302;39;20051;-67
2023/05/24 08:36:42;;;;;;;12.73;4.15;;;;;;;18.15;45.01;102238.28;3615889;39;20062;-67
2023/05/24 08:39:08;;;;;;;8.55;3.78;;;;;;;18.07;44.64;102232.50;3616676;39;20058;-67
2023/05/24 08:41:38;;;;;;;13.05;3.92;;;;;;;17.99;44.92;102215.88;3612813;39;20061;-65
2023/05/24 08:44:06;;;;;;;12.95;4.20;;;;;;;18.25;44.55;102233.06;3619687;39;20044;-66
2023/05/24 08:46:37;;;;;;;13.20;4.60;;;;;;;18.09;43.92;102222.41;3623306;39;20388;-66
2023/05/24 08:49:04;;;;;;;11.27;4.35;;;;;;;17.95;44.68;102215.22;3620882;39;20050;-67
2023/05/24 08:51:30;;;;;;;13.63;3.92;;;;;;;17.84;44.40;102212.38;3621102;39;20317;-67
2023/05/24 08:54:00;;;;;;;10.77;4.00;;;;;;;17.42;45.28;102189.03;3616625;39;20046;-67
2023/05/24 08:56:27;;;;;;;8.35;3.53;;;;;;;17.44;44.52;102211.53;3618412;39;20061;-66
2023/05/24 08:58:54;;;;;;;12.32;3.90;;;;;;;17.54;46.38;102188.19;3619917;39;20041;-67
2023/05/24 09:01:23;;;;;;;11.38;4.13;;;;;;;17.88;43.95;102207.59;3615590;39;20377;-67
2023/05/24 09:03:50;;;;;;;12.80;3.90;;;;;;;18.05;45.38;102210.00;3617332;39;20055;-67
2023/05/24 09:06:18;;;;;;;11.88;3.90;;;;;;;18.13;45.88;102206.72;3621488;39;20080;-68
2023/05/24 09:08:45;;;;;;;10.73;3.83;;;;;;;18.07;44.30;102180.81;3617903;39;20050;-66
2023/05/24 09:11:15;;;;;;;12.50;4.30;;;;;;;17.78;44.28;102183.75;3613644;39;20063;-67
2023/05/24 09:13:46;;;;;;;12.77;4.18;;;;;;;17.61;45.24;102217.53;3619424;39;20304;-67
2023/05/24 09:16:13;;;;;;;9.15;3.90;;;;;;;17.49;46.76;102209.38;3616371;39;20062;-67
2023/05/24 09:18:43;;;;;;;12.98;4.32;;;;;;;17.31;46.67;102208.78;3616267;39;20126;-68
2023/05/24 09:21:10;;;;;;;13.65;4.72;;;;;;;17.20;47.57;102201.38;3621685;39;20089;-67
2023/05/24 09:23:37;;;;;;;10.10;3.95;;;;;;;17.55;46.83;102208.94;3616331;39;20128;-67
2023/05/24 09:26:08;;;;;;;10.07;3.78;;;;;;;17.94;45.64;102205.31;3617447;39;20087;-67
2023/05/24 09:28:34;;;;;;;13.75;4.45;;;;;;;17.71;45.23;102168.81;3614628;39;20054;-67
2023/05/24 09:31:03;;;;;;;9.77;3.70;;;;;;;18.10;44.33;102213.25;3615856;39;20066;-67
2023/05/24 09:33:33;;;;;;;12.52;3.97;;;;;;;18.56;44.64;102199.03;3616052;39;20439;-67
2023/05/24 09:36:03;;;;;;;10.05;3.55;;;;;;;18.74;42.81;102203.16;3614998;39;20101;-67
2023/05/24 09:38:30;;;;;;;11.88;4.00;;;;;;;18.63;41.89;102197.56;3613011;39;20818;-67
2023/05/24 09:41:01;;;;;;;11.65;3.60;;;;;;;18.52;43.07;102197.50;3609667;39;20126;-67
2023/05/24 09:43:29;;;;;;;11.95;3.78;;;;;;;18.31;43.88;102205.41;3606897;39;20046;-67
2023/05/24 09:45:56;;;;;;;11.38;3.83;;;;;;;18.25;44.00;102157.69;3615980;39;20043;-66
2023/05/24 09:48:23;;;;;;;7.80;3.63;;;;;;;18.86;43.77;102200.47;3616653;39;22515;-67
2023/05/24 09:51:08;;;;;;;9.88;3.70;;;;;;;19.19;41.92;102195.19;3615143;39;20057;-68
2023/05/24 09:53:36;;;;;;;10.38;3.45;;;;;;;19.56;39.35;102199.66;3613804;39;20054;-67
2023/05/24 09:56:07;;;;;;;9.55;3.38;;;;;;;19.86;39.59;102197.28;3615773;39;20049;-67
2023/05/24 09:58:34;;;;;;;12.30;3.88;;;;;;;19.71;39.50;102193.91;3613465;39;20115;-67
2023/05/24 10:01:13;;;;;;;11.38;3.40;;;;;;;19.45;41.25;102195.03;3614557;39;20118;-67
2023/05/24 10:03:54;;;;;;;11.38;3.33;;;;;;;19.09;39.04;102193.28;3606632;39;20057;-65
2023/05/24 10:06:20;;;;;;;7.30;3.00;;;;;;;19.27;40.94;102189.16;3618594;39;20050;-66
2023/05/24 10:08:53;;;;;;;7.72;3.47;;;;;;;19.50;41.71;102190.09;3620854;39;20063;-65
2023/05/24 10:11:19;;;;;;;9.63;3.65;;;;;;;19.77;39.94;102197.16;3616774;39;20482;-66
2023/05/24 10:13:48;;;;;;;9.75;3.53;;;;;;;20.14;38.10;102190.47;3617263;39;20045;-67
2023/05/24 10:16:15;;;;;;;8.98;3.10;;;;;;;20.24;38.59;102165.16;3608138;39;20049;-67
2023/05/24 10:18:41;;;;;;;7.85;3.20;;;;;;;20.33;37.71;102184.41;3614495;39;20462;-66
2023/05/24 10:21:08;;;;;;;9.88;3.58;;;;;;;20.39;38.62;102188.47;3614743;39;20103;-67
2023/05/24 10:23:37;;;;;;;20.80;12.82;;;;;;;20.46;37.36;102184.25;3617458;39;20455;-67
2023/05/24 10:26:10;;;;;;;11.23;3.22;;;;;;;20.46;38.68;102173.34;3616648;39;20091;-67
2023/05/24 10:28:53;;;;;;;9.07;3.38;;;;;;;20.46;37.47;102173.34;3614488;39;20051;-67
2023/05/24 10:31:33;;;;;;;11.45;3.65;;;;;;;20.34;38.35;102179.81;3616784;39;20398;-67
2023/05/24 10:34:04;;;;;;;11.48;3.97;;;;;;;20.26;40.63;102182.28;3615910;39;20050;-68
2023/05/24 10:36:31;;;;;;;9.15;3.50;;;;;;;20.08;38.82;102184.66;3614567;39;20061;-67
2023/05/24 10:38:57;;;;;;;9.55;3.33;;;;;;;19.81;40.20;102182.25;3618897;39;20378;-67
2023/05/24 10:41:26;;;;;;;10.82;3.53;;;;;;;20.00;39.81;102177.06;3614172;39;20103;-66
2023/05/24 10:43:53;;;;;;;9.25;3.05;;;;;;;20.25;36.95;102159.56;3615210;39;20456;-65
2023/05/24 10:46:21;;;;;;;8.93;3.40;;;;;;;20.28;37.68;102147.53;3619402;39;20057;-66
2023/05/24 10:49:01;;;;;;;13.18;3.70;;;;;;;20.53;37.64;102171.84;3616372;39;20314;-67
2023/05/24 10:51:37;;;;;;;8.25;2.92;;;;;;;20.27;36.27;102179.44;3617596;39;20046;-66
2023/05/24 10:54:18;;;;;;;11.27;3.88;;;;;;;19.90;38.02;102176.06;3613083;39;20059;-67
2023/05/24 10:56:49;;;;;;;6.40;3.03;;;;;;;19.57;38.06;102165.91;3616207;39;20433;-66
2023/05/24 10:59:44;;;;;;;7.53;3.05;;;;;;;19.29;40.37;102169.97;3615665;39;20059;-67
2023/05/24 11:02:13;;;;;;;7.80;3.33;;;;;;;19.21;41.84;102174.13;3613054;39;20063;-67
2023/05/24 11:04:45;;;;;;;9.63;4.00;;;;;;;18.84;41.07;102091.63;3617216;39;20135;-66
2023/05/24 11:07:14;;;;;;;9.60;3.65;;;;;;;19.30;40.04;102169.81;3614582;39;20453;-67
2023/05/24 11:09:54;;;;;;;12.00;3.40;;;;;;;19.28;39.79;102168.19;3616244;39;20043;-66
2023/05/24 11:12:20;;;;;;;9.60;3.08;;;;;;;19.32;39.29;102167.84;3613294;39;20058;-66
2023/05/24 11:14:52;;;;;;;11.10;3.60;;;;;;;19.25;39.95;102161.13;3614533;39;20066;-66
2023/05/24 11:17:22;;;;;;;11.70;3.47;;;;;;;19.20;41.85;102161.50;3614155;39;20459;-66
2023/05/24 11:19:53;;;;;;;7.35;3.20;;;;;;;19.23;41.10;102172.16;3613462;39;20063;-66
2023/05/24 11:22:22;;;;;;;9.05;3.40;;;;;;;19.13;41.79;102168.41;3614441;39;20482;-67
2023/05/24 11:24:51;;;;;;;10.02;3.70;;;;;;;18.96;41.95;102158.78;3614041;39;20170;-67
2023/05/24 11:27:16;;;;;;;11.80;3.83;;;;;;;18.92;41.13;102161.88;3614016;39;20079;-67